sensor_id;sensor_type;location;lat;lon;timestamp;P1;durP1;ratioP1;P2;durP2;ratioP2
70545;SDS011;58098;51.680;5.134;2023-09-19T00:00:04;18.80;;;3.55;;
70545;SDS011;58098;51.680;5.134;2023-09-19T00:02:32;15.63;;;3.57;;
70545;SDS011;58098;51.680;5.134;2023-09-19T00:04:58;21.55;;;3.83;;
70545;SDS011;58098;51.680;5.134;2023-09-19T00:07:23;14.93;;;3.40;;
70545;SDS011;58098;51.680;5.134;2023-09-19T00:09:49;21.58;;;4.63;;
70545;SDS011;58098;51.680;5.134;2023-09-19T00:12:14;20.87;;;3.80;;
70545;SDS011;58098;51.680;5.134;2023-09-19T00:14:40;17.30;;;3.47;;
70545;SDS011;58098;51.680;5.134;2023-09-19T00:17:05;15.17;;;3.87;;
70545;SDS011;58098;51.680;5.134;2023-09-19T00:19:35;15.43;;;3.30;;
70545;SDS011;58098;51.680;5.134;2023-09-19T00:22:02;22.47;;;4.03;;
70545;SDS011;58098;51.680;5.134;2023-09-19T00:24:27;16.05;;;3.80;;
70545;SDS011;58098;51.680;5.134;2023-09-19T00:26:53;13.53;;;3.10;;
70545;SDS011;58098;51.680;5.134;2023-09-19T00:29:20;14.48;;;3.58;;
70545;SDS011;58098;51.680;5.134;2023-09-19T00:31:46;15.53;;;3.60;;
70545;SDS011;58098;51.680;5.134;2023-09-19T00:34:11;14.77;;;3.50;;
70545;SDS011;58098;51.680;5.134;2023-09-19T00:36:37;14.63;;;3.72;;
70545;SDS011;58098;51.680;5.134;2023-09-19T00:39:05;12.00;;;3.60;;
70545;SDS011;58098;51.680;5.134;2023-09-19T00:41:33;19.92;;;3.72;;
70545;SDS011;58098;51.680;5.134;2023-09-19T00:44:00;18.67;;;3.50;;
70545;SDS011;58098;51.680;5.134;2023-09-19T00:46:27;17.92;;;3.47;;
70545;SDS011;58098;51.680;5.134;2023-09-19T00:48:52;21.60;;;4.07;;
70545;SDS011;58098;51.680;5.134;2023-09-19T00:51:18;18.35;;;4.07;;
70545;SDS011;58098;51.680;5.134;2023-09-19T00:53:47;17.38;;;4.30;;
70545;SDS011;58098;51.680;5.134;2023-09-19T00:56:14;17.83;;;2.93;;
70545;SDS011;58098;51.680;5.134;2023-09-19T00:58:43;13.13;;;3.20;;
70545;SDS011;58098;51.680;5.134;2023-09-19T01:01:09;19.40;;;3.47;;
70545;SDS011;58098;51.680;5.134;2023-09-19T01:03:36;21.60;;;3.85;;
70545;SDS011;58098;51.680;5.134;2023-09-19T01:06:02;11.90;;;2.93;;
70545;SDS011;58098;51.680;5.134;2023-09-19T01:08:27;19.37;;;3.70;;
70545;SDS011;58098;51.680;5.134;2023-09-19T01:11:06;17.33;;;3.33;;
70545;SDS011;58098;51.680;5.134;2023-09-19T01:13:48;17.48;;;3.40;;
70545;SDS011;58098;51.680;5.134;2023-09-19T01:16:28;16.88;;;3.53;;
70545;SDS011;58098;51.680;5.134;2023-09-19T01:19:49;17.38;;;3.30;;
70545;SDS011;58098;51.680;5.134;2023-09-19T01:21:55;20.30;;;3.60;;
70545;SDS011;58098;51.680;5.134;2023-09-19T01:27:25;17.77;;;3.35;;
70545;SDS011;58098;51.680;5.134;2023-09-19T01:30:13;16.33;;;3.35;;
70545;SDS011;58098;51.680;5.134;2023-09-19T01:32:39;18.00;;;3.53;;
70545;SDS011;58098;51.680;5.134;2023-09-19T01:35:06;15.60;;;3.20;;
70545;SDS011;58098;51.680;5.134;2023-09-19T01:37:37;18.05;;;3.63;;
70545;SDS011;58098;51.680;5.134;2023-09-19T01:45:26;17.63;;;3.55;;
70545;SDS011;58098;51.680;5.134;2023-09-19T01:47:52;19.90;;;3.57;;
70545;SDS011;58098;51.680;5.134;2023-09-19T01:53:26;16.98;;;3.45;;
70545;SDS011;58098;51.680;5.134;2023-09-19T01:55:55;18.23;;;3.40;;
70545;SDS011;58098;51.680;5.134;2023-09-19T02:01:00;15.03;;;2.97;;
70545;SDS011;58098;51.680;5.134;2023-09-19T02:03:26;11.63;;;2.95;;
70545;SDS011;58098;51.680;5.134;2023-09-19T02:05:53;18.55;;;3.90;;
70545;SDS011;58098;51.680;5.134;2023-09-19T02:08:20;16.67;;;3.13;;
70545;SDS011;58098;51.680;5.134;2023-09-19T02:10:50;17.58;;;3.97;;
70545;SDS011;58098;51.680;5.134;2023-09-19T02:13:16;15.50;;;2.80;;
70545;SDS011;58098;51.680;5.134;2023-09-19T02:15:42;16.40;;;3.10;;
70545;SDS011;58098;51.680;5.134;2023-09-19T02:18:09;12.45;;;3.47;;
70545;SDS011;58098;51.680;5.134;2023-09-19T02:20:36;10.93;;;2.93;;
70545;SDS011;58098;51.680;5.134;2023-09-19T02:23:02;15.90;;;3.63;;
70545;SDS011;58098;51.680;5.134;2023-09-19T02:25:28;14.15;;;3.50;;
70545;SDS011;58098;51.680;5.134;2023-09-19T02:27:53;13.30;;;3.43;;
70545;SDS011;58098;51.680;5.134;2023-09-19T02:30:19;14.47;;;3.47;;
70545;SDS011;58098;51.680;5.134;2023-09-19T02:32:48;16.52;;;3.40;;
70545;SDS011;58098;51.680;5.134;2023-09-19T02:35:14;14.05;;;2.78;;
70545;SDS011;58098;51.680;5.134;2023-09-19T02:37:40;15.63;;;3.43;;
70545;SDS011;58098;51.680;5.134;2023-09-19T02:40:05;18.40;;;3.87;;
70545;SDS011;58098;51.680;5.134;2023-09-19T02:42:43;12.82;;;2.72;;
70545;SDS011;58098;51.680;5.134;2023-09-19T02:45:13;13.82;;;2.83;;
70545;SDS011;58098;51.680;5.134;2023-09-19T02:47:40;21.80;;;3.40;;
70545;SDS011;58098;51.680;5.134;2023-09-19T02:50:05;17.20;;;2.90;;
70545;SDS011;58098;51.680;5.134;2023-09-19T02:52:31;18.47;;;2.70;;
70545;SDS011;58098;51.680;5.134;2023-09-19T02:54:57;19.67;;;3.78;;
70545;SDS011;58098;51.680;5.134;2023-09-19T02:57:22;11.13;;;3.13;;
70545;SDS011;58098;51.680;5.134;2023-09-19T02:59:49;19.70;;;3.35;;
70545;SDS011;58098;51.680;5.134;2023-09-19T03:02:14;15.27;;;3.17;;
70545;SDS011;58098;51.680;5.134;2023-09-19T03:04:40;10.57;;;2.90;;
70545;SDS011;58098;51.680;5.134;2023-09-19T03:07:06;10.00;;;2.53;;
70545;SDS011;58098;51.680;5.134;2023-09-19T03:09:31;11.17;;;3.00;;
70545;SDS011;58098;51.680;5.134;2023-09-19T03:11:57;13.50;;;3.03;;
70545;SDS011;58098;51.680;5.134;2023-09-19T03:14:22;14.97;;;2.70;;
70545;SDS011;58098;51.680;5.134;2023-09-19T03:16:48;15.73;;;3.83;;
70545;SDS011;58098;51.680;5.134;2023-09-19T03:19:13;11.13;;;2.47;;
70545;SDS011;58098;51.680;5.134;2023-09-19T03:21:40;13.70;;;3.10;;
70545;SDS011;58098;51.680;5.134;2023-09-19T03:24:05;14.57;;;3.30;;
70545;SDS011;58098;51.680;5.134;2023-09-19T03:26:31;14.73;;;3.50;;
70545;SDS011;58098;51.680;5.134;2023-09-19T03:28:58;19.23;;;3.60;;
70545;SDS011;58098;51.680;5.134;2023-09-19T03:31:23;14.73;;;3.67;;
70545;SDS011;58098;51.680;5.134;2023-09-19T03:33:49;14.85;;;3.05;;
70545;SDS011;58098;51.680;5.134;2023-09-19T03:36:14;16.70;;;3.20;;
70545;SDS011;58098;51.680;5.134;2023-09-19T03:38:39;14.33;;;2.93;;
70545;SDS011;58098;51.680;5.134;2023-09-19T03:41:04;10.40;;;2.83;;
70545;SDS011;58098;51.680;5.134;2023-09-19T03:43:31;11.17;;;3.03;;
70545;SDS011;58098;51.680;5.134;2023-09-19T03:46:00;12.60;;;3.38;;
70545;SDS011;58098;51.680;5.134;2023-09-19T03:48:28;13.95;;;3.33;;
70545;SDS011;58098;51.680;5.134;2023-09-19T03:50:53;9.67;;;2.67;;
70545;SDS011;58098;51.680;5.134;2023-09-19T03:53:21;15.35;;;3.17;;
70545;SDS011;58098;51.680;5.134;2023-09-19T03:55:47;16.43;;;3.20;;
70545;SDS011;58098;51.680;5.134;2023-09-19T03:58:12;15.80;;;3.10;;
70545;SDS011;58098;51.680;5.134;2023-09-19T04:00:38;14.57;;;2.80;;
70545;SDS011;58098;51.680;5.134;2023-09-19T04:03:03;13.07;;;2.80;;
70545;SDS011;58098;51.680;5.134;2023-09-19T04:05:31;12.23;;;2.90;;
70545;SDS011;58098;51.680;5.134;2023-09-19T04:07:57;12.40;;;2.80;;
70545;SDS011;58098;51.680;5.134;2023-09-19T04:10:22;13.17;;;3.00;;
70545;SDS011;58098;51.680;5.134;2023-09-19T04:12:51;13.07;;;3.17;;
70545;SDS011;58098;51.680;5.134;2023-09-19T04:15:20;16.75;;;3.15;;
70545;SDS011;58098;51.680;5.134;2023-09-19T04:17:49;15.15;;;3.22;;
70545;SDS011;58098;51.680;5.134;2023-09-19T04:20:16;18.80;;;2.83;;
70545;SDS011;58098;51.680;5.134;2023-09-19T04:22:42;11.52;;;3.17;;
70545;SDS011;58098;51.680;5.134;2023-09-19T04:25:08;11.27;;;3.00;;
70545;SDS011;58098;51.680;5.134;2023-09-19T04:27:33;14.48;;;2.80;;
70545;SDS011;58098;51.680;5.134;2023-09-19T04:29:59;9.87;;;2.67;;
70545;SDS011;58098;51.680;5.134;2023-09-19T04:32:28;14.07;;;3.30;;
70545;SDS011;58098;51.680;5.134;2023-09-19T04:34:54;10.65;;;2.53;;
70545;SDS011;58098;51.680;5.134;2023-09-19T04:37:20;16.57;;;3.70;;
70545;SDS011;58098;51.680;5.134;2023-09-19T04:39:46;11.63;;;2.72;;
70545;SDS011;58098;51.680;5.134;2023-09-19T04:42:12;9.37;;;2.87;;
70545;SDS011;58098;51.680;5.134;2023-09-19T04:44:39;18.13;;;3.42;;
70545;SDS011;58098;51.680;5.134;2023-09-19T04:47:05;11.27;;;2.70;;
70545;SDS011;58098;51.680;5.134;2023-09-19T04:49:30;15.90;;;2.83;;
70545;SDS011;58098;51.680;5.134;2023-09-19T04:51:56;17.27;;;3.23;;
70545;SDS011;58098;51.680;5.134;2023-09-19T04:54:21;15.43;;;3.20;;
70545;SDS011;58098;51.680;5.134;2023-09-19T04:56:47;16.73;;;3.30;;
70545;SDS011;58098;51.680;5.134;2023-09-19T04:59:13;22.05;;;3.40;;
70545;SDS011;58098;51.680;5.134;2023-09-19T05:01:40;18.10;;;3.50;;
70545;SDS011;58098;51.680;5.134;2023-09-19T05:04:05;16.17;;;3.15;;
70545;SDS011;58098;51.680;5.134;2023-09-19T05:06:31;17.80;;;2.60;;
70545;SDS011;58098;51.680;5.134;2023-09-19T05:08:56;17.27;;;3.47;;
70545;SDS011;58098;51.680;5.134;2023-09-19T05:11:21;12.97;;;3.23;;
70545;SDS011;58098;51.680;5.134;2023-09-19T05:13:48;14.05;;;2.90;;
70545;SDS011;58098;51.680;5.134;2023-09-19T05:16:20;30.90;;;3.38;;
70545;SDS011;58098;51.680;5.134;2023-09-19T05:18:47;13.73;;;2.78;;
70545;SDS011;58098;51.680;5.134;2023-09-19T05:21:12;16.03;;;3.53;;
70545;SDS011;58098;51.680;5.134;2023-09-19T05:23:38;14.30;;;3.70;;
70545;SDS011;58098;51.680;5.134;2023-09-19T05:26:03;15.20;;;3.23;;
70545;SDS011;58098;51.680;5.134;2023-09-19T05:28:30;12.20;;;3.42;;
70545;SDS011;58098;51.680;5.134;2023-09-19T05:30:57;15.03;;;3.10;;
70545;SDS011;58098;51.680;5.134;2023-09-19T05:33:26;16.70;;;3.05;;
70545;SDS011;58098;51.680;5.134;2023-09-19T05:35:52;12.18;;;3.65;;
70545;SDS011;58098;51.680;5.134;2023-09-19T05:38:18;16.67;;;3.22;;
70545;SDS011;58098;51.680;5.134;2023-09-19T05:40:45;13.53;;;2.60;;
70545;SDS011;58098;51.680;5.134;2023-09-19T05:43:11;19.33;;;3.67;;
70545;SDS011;58098;51.680;5.134;2023-09-19T05:45:36;15.60;;;3.33;;
70545;SDS011;58098;51.680;5.134;2023-09-19T05:48:09;15.50;;;3.10;;
70545;SDS011;58098;51.680;5.134;2023-09-19T05:50:37;21.55;;;3.30;;
70545;SDS011;58098;51.680;5.134;2023-09-19T05:53:02;9.97;;;3.03;;
70545;SDS011;58098;51.680;5.134;2023-09-19T05:55:29;14.60;;;2.77;;
70545;SDS011;58098;51.680;5.134;2023-09-19T05:57:55;17.05;;;3.53;;
70545;SDS011;58098;51.680;5.134;2023-09-19T06:00:22;18.23;;;3.00;;
70545;SDS011;58098;51.680;5.134;2023-09-19T06:02:51;22.95;;;3.70;;
70545;SDS011;58098;51.680;5.134;2023-09-19T06:05:17;17.60;;;3.30;;
70545;SDS011;58098;51.680;5.134;2023-09-19T06:07:43;15.25;;;2.90;;
70545;SDS011;58098;51.680;5.134;2023-09-19T06:10:08;17.30;;;2.90;;
70545;SDS011;58098;51.680;5.134;2023-09-19T06:12:38;14.73;;;3.15;;
70545;SDS011;58098;51.680;5.134;2023-09-19T06:15:09;20.67;;;3.83;;
70545;SDS011;58098;51.680;5.134;2023-09-19T06:17:39;15.43;;;3.03;;
70545;SDS011;58098;51.680;5.134;2023-09-19T06:20:05;12.45;;;2.85;;
70545;SDS011;58098;51.680;5.134;2023-09-19T06:22:37;17.65;;;3.35;;
70545;SDS011;58098;51.680;5.134;2023-09-19T06:25:03;19.57;;;3.37;;
70545;SDS011;58098;51.680;5.134;2023-09-19T06:27:29;12.52;;;2.85;;
70545;SDS011;58098;51.680;5.134;2023-09-19T06:29:54;16.10;;;3.37;;
70545;SDS011;58098;51.680;5.134;2023-09-19T06:32:26;17.43;;;3.50;;
70545;SDS011;58098;51.680;5.134;2023-09-19T06:34:52;19.30;;;3.05;;
70545;SDS011;58098;51.680;5.134;2023-09-19T06:37:19;12.27;;;2.57;;
70545;SDS011;58098;51.680;5.134;2023-09-19T06:39:46;15.85;;;3.08;;
70545;SDS011;58098;51.680;5.134;2023-09-19T06:42:13;17.35;;;3.15;;
70545;SDS011;58098;51.680;5.134;2023-09-19T06:44:38;14.53;;;2.93;;
70545;SDS011;58098;51.680;5.134;2023-09-19T06:47:03;15.63;;;3.28;;
70545;SDS011;58098;51.680;5.134;2023-09-19T06:49:29;18.27;;;3.30;;
70545;SDS011;58098;51.680;5.134;2023-09-19T06:51:55;16.50;;;3.30;;
70545;SDS011;58098;51.680;5.134;2023-09-19T06:54:22;12.98;;;3.20;;
70545;SDS011;58098;51.680;5.134;2023-09-19T06:56:47;19.93;;;3.67;;
70545;SDS011;58098;51.680;5.134;2023-09-19T06:59:13;21.53;;;3.37;;
70545;SDS011;58098;51.680;5.134;2023-09-19T07:01:39;17.92;;;3.58;;
70545;SDS011;58098;51.680;5.134;2023-09-19T07:04:05;16.67;;;3.37;;
70545;SDS011;58098;51.680;5.134;2023-09-19T07:06:30;16.70;;;3.20;;
70545;SDS011;58098;51.680;5.134;2023-09-19T07:08:55;19.73;;;3.53;;
70545;SDS011;58098;51.680;5.134;2023-09-19T07:11:21;12.67;;;3.43;;
70545;SDS011;58098;51.680;5.134;2023-09-19T07:13:48;12.33;;;3.00;;
70545;SDS011;58098;51.680;5.134;2023-09-19T07:16:13;18.23;;;2.90;;
70545;SDS011;58098;51.680;5.134;2023-09-19T07:18:52;13.55;;;2.90;;
70545;SDS011;58098;51.680;5.134;2023-09-19T07:21:17;23.23;;;3.73;;
70545;SDS011;58098;51.680;5.134;2023-09-19T07:23:43;14.73;;;3.10;;
70545;SDS011;58098;51.680;5.134;2023-09-19T07:26:08;14.50;;;3.23;;
70545;SDS011;58098;51.680;5.134;2023-09-19T07:28:33;13.67;;;3.30;;
70545;SDS011;58098;51.680;5.134;2023-09-19T07:31:01;15.05;;;3.17;;
70545;SDS011;58098;51.680;5.134;2023-09-19T07:33:28;22.02;;;3.40;;
70545;SDS011;58098;51.680;5.134;2023-09-19T07:35:53;15.63;;;3.03;;
70545;SDS011;58098;51.680;5.134;2023-09-19T07:38:19;15.80;;;3.10;;
70545;SDS011;58098;51.680;5.134;2023-09-19T07:40:45;21.60;;;2.90;;
70545;SDS011;58098;51.680;5.134;2023-09-19T07:43:11;15.50;;;2.50;;
70545;SDS011;58098;51.680;5.134;2023-09-19T07:45:36;15.45;;;3.25;;
70545;SDS011;58098;51.680;5.134;2023-09-19T07:48:01;16.90;;;3.27;;
70545;SDS011;58098;51.680;5.134;2023-09-19T07:50:29;22.73;;;3.58;;
70545;SDS011;58098;51.680;5.134;2023-09-19T07:52:55;15.10;;;3.03;;
70545;SDS011;58098;51.680;5.134;2023-09-19T07:55:21;14.80;;;2.78;;
70545;SDS011;58098;51.680;5.134;2023-09-19T07:57:51;15.73;;;3.15;;
70545;SDS011;58098;51.680;5.134;2023-09-19T08:00:17;15.35;;;3.22;;
70545;SDS011;58098;51.680;5.134;2023-09-19T08:02:43;19.83;;;3.90;;
70545;SDS011;58098;51.680;5.134;2023-09-19T08:05:09;16.03;;;3.10;;
70545;SDS011;58098;51.680;5.134;2023-09-19T08:07:38;21.33;;;3.78;;
70545;SDS011;58098;51.680;5.134;2023-09-19T08:10:06;15.15;;;2.67;;
70545;SDS011;58098;51.680;5.134;2023-09-19T08:12:39;17.80;;;3.60;;
70545;SDS011;58098;51.680;5.134;2023-09-19T08:15:14;20.00;;;3.50;;
70545;SDS011;58098;51.680;5.134;2023-09-19T08:17:46;11.10;;;2.57;;
70545;SDS011;58098;51.680;5.134;2023-09-19T08:20:12;18.05;;;3.30;;
70545;SDS011;58098;51.680;5.134;2023-09-19T08:22:47;15.68;;;3.45;;
70545;SDS011;58098;51.680;5.134;2023-09-19T08:25:15;13.88;;;3.17;;
70545;SDS011;58098;51.680;5.134;2023-09-19T08:27:44;17.45;;;3.17;;
70545;SDS011;58098;51.680;5.134;2023-09-19T08:30:14;17.07;;;3.43;;
70545;SDS011;58098;51.680;5.134;2023-09-19T08:32:40;13.43;;;3.10;;
70545;SDS011;58098;51.680;5.134;2023-09-19T08:35:07;21.27;;;3.30;;
70545;SDS011;58098;51.680;5.134;2023-09-19T08:37:34;17.80;;;3.17;;
70545;SDS011;58098;51.680;5.134;2023-09-19T08:39:59;15.60;;;3.10;;
70545;SDS011;58098;51.680;5.134;2023-09-19T08:42:24;14.73;;;2.90;;
70545;SDS011;58098;51.680;5.134;2023-09-19T08:44:50;15.33;;;3.03;;
70545;SDS011;58098;51.680;5.134;2023-09-19T08:47:16;17.55;;;3.28;;
70545;SDS011;58098;51.680;5.134;2023-09-19T08:49:58;13.63;;;3.28;;
70545;SDS011;58098;51.680;5.134;2023-09-19T08:52:27;15.93;;;3.37;;
70545;SDS011;58098;51.680;5.134;2023-09-19T08:54:59;12.32;;;2.90;;
70545;SDS011;58098;51.680;5.134;2023-09-19T08:57:32;19.95;;;3.20;;
70545;SDS011;58098;51.680;5.134;2023-09-19T09:00:01;16.95;;;3.17;;
70545;SDS011;58098;51.680;5.134;2023-09-19T09:02:29;12.25;;;2.85;;
70545;SDS011;58098;51.680;5.134;2023-09-19T09:04:59;24.33;;;3.23;;
70545;SDS011;58098;51.680;5.134;2023-09-19T09:07:25;16.70;;;3.53;;
70545;SDS011;58098;51.680;5.134;2023-09-19T09:09:53;18.60;;;3.90;;
70545;SDS011;58098;51.680;5.134;2023-09-19T09:12:19;20.60;;;3.40;;
70545;SDS011;58098;51.680;5.134;2023-09-19T09:14:45;16.15;;;3.15;;
70545;SDS011;58098;51.680;5.134;2023-09-19T09:17:15;18.40;;;2.95;;
70545;SDS011;58098;51.680;5.134;2023-09-19T09:19:42;17.48;;;3.40;;
70545;SDS011;58098;51.680;5.134;2023-09-19T09:22:08;18.77;;;3.40;;
70545;SDS011;58098;51.680;5.134;2023-09-19T09:24:34;16.05;;;3.15;;
70545;SDS011;58098;51.680;5.134;2023-09-19T09:27:06;18.50;;;3.50;;
70545;SDS011;58098;51.680;5.134;2023-09-19T09:29:48;14.27;;;3.30;;
70545;SDS011;58098;51.680;5.134;2023-09-19T09:34:56;12.63;;;2.75;;
70545;SDS011;58098;51.680;5.134;2023-09-19T09:37:23;17.75;;;3.83;;
70545;SDS011;58098;51.680;5.134;2023-09-19T09:39:59;15.68;;;3.80;;
70545;SDS011;58098;51.680;5.134;2023-09-19T09:42:44;15.13;;;3.08;;
70545;SDS011;58098;51.680;5.134;2023-09-19T09:47:47;14.43;;;2.88;;
70545;SDS011;58098;51.680;5.134;2023-09-19T09:50:24;14.55;;;2.90;;
70545;SDS011;58098;51.680;5.134;2023-09-19T09:53:19;15.50;;;3.20;;
70545;SDS011;58098;51.680;5.134;2023-09-19T09:56:07;15.35;;;3.20;;
70545;SDS011;58098;51.680;5.134;2023-09-19T09:58:51;14.32;;;3.03;;
70545;SDS011;58098;51.680;5.134;2023-09-19T10:01:24;11.52;;;2.90;;
70545;SDS011;58098;51.680;5.134;2023-09-19T10:03:52;16.10;;;3.38;;
70545;SDS011;58098;51.680;5.134;2023-09-19T10:06:22;13.23;;;3.10;;
70545;SDS011;58098;51.680;5.134;2023-09-19T10:09:06;8.68;;;2.78;;
70545;SDS011;58098;51.680;5.134;2023-09-19T10:14:28;12.82;;;2.80;;
70545;SDS011;58098;51.680;5.134;2023-09-19T10:16:58;18.52;;;3.33;;
70545;SDS011;58098;51.680;5.134;2023-09-19T10:19:30;13.70;;;2.73;;
70545;SDS011;58098;51.680;5.134;2023-09-19T10:22:01;14.25;;;3.00;;
70545;SDS011;58098;51.680;5.134;2023-09-19T10:24:28;13.20;;;2.90;;
70545;SDS011;58098;51.680;5.134;2023-09-19T10:26:53;15.77;;;3.10;;
70545;SDS011;58098;51.680;5.134;2023-09-19T10:29:20;12.43;;;2.38;;
70545;SDS011;58098;51.680;5.134;2023-09-19T10:31:47;12.60;;;2.60;;
70545;SDS011;58098;51.680;5.134;2023-09-19T10:34:15;15.35;;;2.63;;
70545;SDS011;58098;51.680;5.134;2023-09-19T10:36:46;14.23;;;2.75;;
70545;SDS011;58098;51.680;5.134;2023-09-19T10:39:15;10.20;;;2.50;;
70545;SDS011;58098;51.680;5.134;2023-09-19T10:41:45;14.05;;;2.60;;
70545;SDS011;58098;51.680;5.134;2023-09-19T10:44:18;14.27;;;2.23;;
70545;SDS011;58098;51.680;5.134;2023-09-19T10:46:49;11.95;;;2.13;;
70545;SDS011;58098;51.680;5.134;2023-09-19T10:49:17;11.15;;;2.42;;
70545;SDS011;58098;51.680;5.134;2023-09-19T10:51:43;6.78;;;2.10;;
70545;SDS011;58098;51.680;5.134;2023-09-19T10:54:12;11.95;;;2.55;;
70545;SDS011;58098;51.680;5.134;2023-09-19T10:56:50;9.93;;;2.70;;
70545;SDS011;58098;51.680;5.134;2023-09-19T10:59:17;7.88;;;2.10;;
70545;SDS011;58098;51.680;5.134;2023-09-19T11:04:25;8.65;;;2.55;;
70545;SDS011;58098;51.680;5.134;2023-09-19T11:07:06;17.83;;;2.90;;
70545;SDS011;58098;51.680;5.134;2023-09-19T11:14:56;7.70;;;2.30;;
70545;SDS011;58098;51.680;5.134;2023-09-19T11:17:35;13.30;;;2.47;;
70545;SDS011;58098;51.680;5.134;2023-09-19T11:25:59;11.77;;;2.20;;
70545;SDS011;58098;51.680;5.134;2023-09-19T11:30:33;5.28;;;1.98;;
70545;SDS011;58098;51.680;5.134;2023-09-19T11:43:46;7.20;;;1.87;;
70545;SDS011;58098;51.680;5.134;2023-09-19T11:46:16;9.40;;;2.00;;
70545;SDS011;58098;51.680;5.134;2023-09-19T11:48:46;9.93;;;2.17;;
70545;SDS011;58098;51.680;5.134;2023-09-19T11:51:13;9.07;;;1.92;;
70545;SDS011;58098;51.680;5.134;2023-09-19T11:53:44;11.68;;;2.20;;
70545;SDS011;58098;51.680;5.134;2023-09-19T11:56:13;7.80;;;1.97;;
70545;SDS011;58098;51.680;5.134;2023-09-19T11:58:42;4.22;;;1.92;;
70545;SDS011;58098;51.680;5.134;2023-09-19T12:01:14;5.80;;;1.85;;
70545;SDS011;58098;51.680;5.134;2023-09-19T12:03:46;6.93;;;1.88;;
70545;SDS011;58098;51.680;5.134;2023-09-19T12:06:17;6.15;;;1.52;;
70545;SDS011;58098;51.680;5.134;2023-09-19T12:08:43;6.50;;;1.90;;
70545;SDS011;58098;51.680;5.134;2023-09-19T12:11:12;6.88;;;2.13;;
70545;SDS011;58098;51.680;5.134;2023-09-19T12:13:43;6.47;;;2.15;;
70545;SDS011;58098;51.680;5.134;2023-09-19T12:16:16;8.05;;;2.20;;
70545;SDS011;58098;51.680;5.134;2023-09-19T12:18:47;6.07;;;1.80;;
70545;SDS011;58098;51.680;5.134;2023-09-19T12:21:21;7.68;;;1.70;;
70545;SDS011;58098;51.680;5.134;2023-09-19T12:26:38;3.50;;;1.50;;
70545;SDS011;58098;51.680;5.134;2023-09-19T12:29:09;11.90;;;1.90;;
70545;SDS011;58098;51.680;5.134;2023-09-19T12:31:46;7.57;;;1.90;;
70545;SDS011;58098;51.680;5.134;2023-09-19T12:34:16;8.27;;;2.40;;
70545;SDS011;58098;51.680;5.134;2023-09-19T12:36:42;8.00;;;1.75;;
70545;SDS011;58098;51.680;5.134;2023-09-19T12:39:08;4.38;;;2.00;;
70545;SDS011;58098;51.680;5.134;2023-09-19T12:41:34;6.57;;;1.73;;
70545;SDS011;58098;51.680;5.134;2023-09-19T12:43:59;7.45;;;1.92;;
70545;SDS011;58098;51.680;5.134;2023-09-19T12:46:25;6.07;;;2.20;;
70545;SDS011;58098;51.680;5.134;2023-09-19T12:51:47;8.67;;;1.60;;
70545;SDS011;58098;51.680;5.134;2023-09-19T12:54:13;5.97;;;1.65;;
70545;SDS011;58098;51.680;5.134;2023-09-19T12:56:43;11.65;;;2.10;;
70545;SDS011;58098;51.680;5.134;2023-09-19T12:59:15;4.97;;;2.00;;
70545;SDS011;58098;51.680;5.134;2023-09-19T13:01:41;3.93;;;1.57;;
70545;SDS011;58098;51.680;5.134;2023-09-19T13:06:43;8.52;;;1.48;;
70545;SDS011;58098;51.680;5.134;2023-09-19T13:09:09;8.77;;;1.30;;
70545;SDS011;58098;51.680;5.134;2023-09-19T13:11:36;4.10;;;1.37;;
70545;SDS011;58098;51.680;5.134;2023-09-19T13:16:53;6.03;;;1.75;;
70545;SDS011;58098;51.680;5.134;2023-09-19T13:25:07;4.60;;;1.40;;
70545;SDS011;58098;51.680;5.134;2023-09-19T13:27:38;8.88;;;1.40;;
70545;SDS011;58098;51.680;5.134;2023-09-19T13:30:04;5.82;;;1.40;;
70545;SDS011;58098;51.680;5.134;2023-09-19T13:32:31;5.50;;;1.40;;
70545;SDS011;58098;51.680;5.134;2023-09-19T13:34:57;6.32;;;1.73;;
70545;SDS011;58098;51.680;5.134;2023-09-19T13:37:23;5.03;;;1.60;;
70545;SDS011;58098;51.680;5.134;2023-09-19T13:39:48;6.27;;;1.40;;
70545;SDS011;58098;51.680;5.134;2023-09-19T13:42:13;6.87;;;1.30;;
70545;SDS011;58098;51.680;5.134;2023-09-19T13:44:39;3.40;;;1.20;;
70545;SDS011;58098;51.680;5.134;2023-09-19T13:47:06;6.35;;;1.77;;
70545;SDS011;58098;51.680;5.134;2023-09-19T13:49:34;4.72;;;2.72;;
70545;SDS011;58098;51.680;5.134;2023-09-19T13:52:01;5.05;;;1.60;;
70545;SDS011;58098;51.680;5.134;2023-09-19T13:54:28;3.87;;;1.40;;
70545;SDS011;58098;51.680;5.134;2023-09-19T13:56:54;5.20;;;1.70;;
70545;SDS011;58098;51.680;5.134;2023-09-19T13:59:19;4.27;;;1.77;;
70545;SDS011;58098;51.680;5.134;2023-09-19T14:01:48;5.85;;;1.70;;
70545;SDS011;58098;51.680;5.134;2023-09-19T14:04:18;6.00;;;2.00;;
70545;SDS011;58098;51.680;5.134;2023-09-19T14:06:44;9.55;;;1.65;;
70545;SDS011;58098;51.680;5.134;2023-09-19T14:09:10;8.38;;;1.77;;
70545;SDS011;58098;51.680;5.134;2023-09-19T14:11:36;5.95;;;1.85;;
70545;SDS011;58098;51.680;5.134;2023-09-19T14:14:02;6.67;;;2.20;;
70545;SDS011;58098;51.680;5.134;2023-09-19T14:16:30;4.27;;;1.60;;
70545;SDS011;58098;51.680;5.134;2023-09-19T14:18:56;8.63;;;1.90;;
70545;SDS011;58098;51.680;5.134;2023-09-19T14:21:21;4.28;;;1.77;;
70545;SDS011;58098;51.680;5.134;2023-09-19T14:23:48;6.82;;;2.40;;
70545;SDS011;58098;51.680;5.134;2023-09-19T14:26:14;7.47;;;1.98;;
70545;SDS011;58098;51.680;5.134;2023-09-19T14:28:41;4.90;;;1.90;;
70545;SDS011;58098;51.680;5.134;2023-09-19T14:31:07;8.02;;;2.13;;
70545;SDS011;58098;51.680;5.134;2023-09-19T14:33:33;8.17;;;2.03;;
70545;SDS011;58098;51.680;5.134;2023-09-19T14:36:01;4.90;;;1.90;;
70545;SDS011;58098;51.680;5.134;2023-09-19T14:38:28;4.90;;;2.10;;
70545;SDS011;58098;51.680;5.134;2023-09-19T14:41:00;6.18;;;2.30;;
70545;SDS011;58098;51.680;5.134;2023-09-19T14:43:26;8.20;;;1.90;;
70545;SDS011;58098;51.680;5.134;2023-09-19T14:45:52;6.22;;;1.85;;
70545;SDS011;58098;51.680;5.134;2023-09-19T14:48:17;7.37;;;1.97;;
70545;SDS011;58098;51.680;5.134;2023-09-19T14:50:42;8.07;;;1.73;;
70545;SDS011;58098;51.680;5.134;2023-09-19T14:53:09;9.55;;;1.92;;
70545;SDS011;58098;51.680;5.134;2023-09-19T14:55:38;5.65;;;1.90;;
70545;SDS011;58098;51.680;5.134;2023-09-19T14:58:06;5.05;;;2.17;;
70545;SDS011;58098;51.680;5.134;2023-09-19T15:00:32;9.57;;;2.28;;
70545;SDS011;58098;51.680;5.134;2023-09-19T15:02:59;8.70;;;1.90;;
70545;SDS011;58098;51.680;5.134;2023-09-19T15:05:24;7.28;;;2.00;;
70545;SDS011;58098;51.680;5.134;2023-09-19T15:07:50;7.23;;;1.60;;
70545;SDS011;58098;51.680;5.134;2023-09-19T15:10:15;5.77;;;2.10;;
70545;SDS011;58098;51.680;5.134;2023-09-19T15:12:41;6.00;;;1.98;;
70545;SDS011;58098;51.680;5.134;2023-09-19T15:15:07;5.40;;;2.03;;
70545;SDS011;58098;51.680;5.134;2023-09-19T15:17:33;7.40;;;2.30;;
70545;SDS011;58098;51.680;5.134;2023-09-19T15:20:00;6.82;;;2.25;;
70545;SDS011;58098;51.680;5.134;2023-09-19T15:22:31;4.30;;;1.90;;
70545;SDS011;58098;51.680;5.134;2023-09-19T15:24:57;4.93;;;2.00;;
70545;SDS011;58098;51.680;5.134;2023-09-19T15:27:22;6.97;;;2.10;;
70545;SDS011;58098;51.680;5.134;2023-09-19T15:29:48;11.45;;;2.22;;
70545;SDS011;58098;51.680;5.134;2023-09-19T15:32:13;6.43;;;2.03;;
70545;SDS011;58098;51.680;5.134;2023-09-19T15:34:38;6.90;;;2.10;;
70545;SDS011;58098;51.680;5.134;2023-09-19T15:37:04;6.13;;;2.10;;
70545;SDS011;58098;51.680;5.134;2023-09-19T15:39:32;6.20;;;2.00;;
70545;SDS011;58098;51.680;5.134;2023-09-19T15:42:02;8.23;;;2.33;;
70545;SDS011;58098;51.680;5.134;2023-09-19T15:44:27;7.78;;;2.40;;
70545;SDS011;58098;51.680;5.134;2023-09-19T15:46:53;7.03;;;2.23;;